Terminal Aerodrome Forecast
Issued by NWS

Home | Current Version | Previous Version | Text Only | Print | Product List | Glossary On
Versions: 1 2 3 4 5 6 7 8 9 10 11 12 13 14 15 16 17 18 19 20 21 22 23 24 25 26 27 28 29 30 31 32 33 34 35 36 37 38 39 40 41 42
000
FTUS45 KBOU 240520
TAFAPA
TAF
KAPA 240520Z 2406/2506 12006KT P6SM SCT120 BKN200
     FM240700 20008KT P6SM SCT140 BKN200
     FM241500 25006KT P6SM FEW140 SCT200
     FM241800 04010KT P6SM SCT080 BKN140 PROB30 2422/2502 VRB20G30KT
      -TSRA BKN080CB
     FM250200 12010KT P6SM FEW090 BKN150=

USA.gov is the U.S. government's official web portal to all federal, state and local government web resources and services.